createdAt,value
2022-12-13T00:00:28.035Z,21.00
2022-12-13T00:01:27.994Z,21.50
2022-12-13T00:02:28.099Z,22.40
2022-12-13T00:03:28.001Z,22.20
2022-12-13T00:04:28.101Z,22.00
2022-12-13T00:05:27.955Z,22.10
2022-12-13T00:06:28.002Z,20.60
2022-12-13T00:07:27.924Z,21.80
2022-12-13T00:08:27.987Z,22.00
2022-12-13T00:09:27.917Z,21.60
2022-12-13T00:10:27.936Z,20.10
2022-12-13T00:11:27.898Z,20.60
2022-12-13T00:12:27.895Z,21.70
2022-12-13T00:13:27.895Z,21.50
2022-12-13T00:14:27.888Z,21.20
2022-12-13T00:15:27.908Z,22.00
2022-12-13T00:16:27.954Z,21.60
2022-12-13T00:17:27.869Z,21.80
2022-12-13T00:18:27.796Z,22.40
2022-12-13T00:19:27.809Z,21.20
2022-12-13T00:20:27.818Z,22.40
2022-12-13T00:21:27.800Z,21.90
2022-12-13T00:22:27.786Z,21.70
2022-12-13T00:23:27.746Z,21.90
2022-12-13T00:24:27.770Z,22.10
2022-12-13T00:25:27.740Z,21.50
2022-12-13T00:26:27.739Z,19.70
2022-12-13T00:27:27.708Z,20.20
2022-12-13T00:28:27.687Z,19.00
2022-12-13T00:29:27.746Z,19.90
2022-12-13T00:30:27.707Z,19.60
2022-12-13T00:31:56.552Z,20.80
2022-12-13T00:32:28.661Z,19.60
2022-12-13T00:33:27.628Z,21.10
2022-12-13T00:34:27.663Z,22.40
2022-12-13T00:35:27.610Z,23.00
2022-12-13T00:36:27.642Z,23.50
2022-12-13T00:37:27.596Z,22.00
2022-12-13T00:38:27.598Z,21.20
2022-12-13T00:39:27.622Z,22.60
2022-12-13T00:40:27.548Z,22.10
2022-12-13T00:41:27.562Z,21.30
2022-12-13T00:42:27.543Z,19.70
2022-12-13T00:43:27.543Z,20.20
2022-12-13T00:44:27.539Z,19.30
2022-12-13T00:45:27.508Z,19.70
2022-12-13T00:46:27.647Z,19.70
2022-12-13T00:47:27.494Z,19.60
2022-12-13T00:48:27.484Z,19.30
2022-12-13T00:49:27.508Z,21.20
2022-12-13T00:50:27.462Z,22.50
2022-12-13T00:51:27.453Z,22.10
2022-12-13T00:52:27.422Z,21.00
2022-12-13T00:53:27.423Z,20.80
2022-12-13T00:54:27.448Z,21.20
2022-12-13T00:55:27.437Z,20.40
2022-12-13T00:56:27.403Z,20.60
2022-12-13T00:57:27.376Z,20.70
2022-12-13T00:58:27.361Z,20.40
2022-12-13T00:59:27.405Z,20.30
2022-12-13T01:00:27.334Z,20.70
2022-12-13T01:01:27.482Z,20.70
2022-12-13T01:02:27.356Z,20.60
2022-12-13T01:03:27.342Z,20.10
2022-12-13T01:04:27.313Z,19.20
2022-12-13T01:05:47.586Z,20.30
2022-12-13T01:06:28.284Z,19.30
2022-12-13T01:07:27.292Z,19.70
2022-12-13T01:08:27.275Z,20.70
2022-12-13T01:09:27.372Z,19.70
2022-12-13T01:10:27.236Z,21.00
2022-12-13T01:11:27.247Z,19.50
2022-12-13T01:12:27.232Z,19.60
2022-12-13T01:13:27.192Z,19.10
2022-12-13T01:14:27.192Z,20.30
2022-12-13T01:15:27.173Z,21.00
2022-12-13T01:16:27.235Z,19.90
2022-12-13T01:17:27.163Z,20.50
2022-12-13T01:18:27.161Z,21.40
2022-12-13T01:19:27.174Z,20.20
2022-12-13T01:20:27.112Z,20.80
2022-12-13T01:21:27.096Z,20.60
2022-12-13T01:22:27.083Z,20.30
2022-12-13T01:23:27.086Z,20.20
2022-12-13T01:24:27.075Z,20.40
2022-12-13T01:25:27.103Z,20.70
2022-12-13T01:26:27.046Z,21.10
2022-12-13T01:27:27.037Z,20.40
2022-12-13T01:28:27.015Z,20.80
2022-12-13T01:29:27.036Z,20.10
2022-12-13T01:30:26.993Z,20.90
2022-12-13T01:31:27.039Z,21.70
2022-12-13T01:32:26.996Z,21.70
2022-12-13T01:33:26.967Z,21.50
2022-12-13T01:34:26.979Z,21.60
2022-12-13T01:35:26.972Z,22.80
2022-12-13T01:36:28.396Z,22.60
2022-12-13T01:37:26.933Z,21.90
2022-12-13T01:38:26.918Z,20.90
2022-12-13T01:39:27.254Z,22.80
2022-12-13T01:40:26.887Z,20.70
2022-12-13T01:41:27.324Z,22.60
2022-12-13T01:42:26.875Z,19.80
2022-12-13T01:43:26.847Z,21.70
2022-12-13T01:44:26.855Z,21.30
2022-12-13T01:45:26.837Z,21.40
2022-12-13T01:46:26.874Z,20.60
2022-12-13T01:47:26.849Z,22.10
2022-12-13T01:48:26.794Z,20.70
2022-12-13T01:49:26.806Z,21.40
2022-12-13T01:50:26.787Z,22.10
2022-12-13T01:51:26.769Z,22.50
2022-12-13T01:52:26.737Z,21.60
2022-12-13T01:53:26.749Z,21.80
2022-12-13T01:54:33.469Z,22.50
2022-12-13T01:55:27.729Z,21.70
2022-12-13T01:56:26.727Z,22.90
2022-12-13T01:57:26.710Z,22.30
2022-12-13T01:58:26.699Z,22.00
2022-12-13T01:59:26.688Z,21.50
2022-12-13T02:00:26.709Z,22.50
2022-12-13T02:01:26.691Z,22.40
2022-12-13T02:02:26.646Z,23.40
2022-12-13T02:03:26.620Z,20.80
2022-12-13T02:04:26.619Z,21.70
2022-12-13T02:05:26.697Z,20.90
2022-12-13T02:06:26.577Z,21.70
2022-12-13T02:07:26.594Z,19.70
2022-12-13T02:08:26.622Z,17.90
2022-12-13T02:09:26.556Z,18.70
2022-12-13T02:10:37.168Z,18.60
2022-12-13T02:11:26.552Z,18.30
2022-12-13T02:12:29.636Z,18.20
2022-12-13T02:13:26.537Z,18.20
2022-12-13T02:14:26.521Z,18.40
2022-12-13T02:15:26.518Z,18.20
2022-12-13T02:16:26.556Z,18.50
2022-12-13T02:17:26.466Z,17.10
2022-12-13T02:18:26.518Z,19.50
2022-12-13T02:19:26.451Z,21.10
2022-12-13T02:20:26.442Z,21.00
2022-12-13T02:21:26.418Z,22.30
2022-12-13T02:22:26.430Z,21.00
2022-12-13T02:23:26.411Z,20.80
2022-12-13T02:24:26.453Z,20.60
2022-12-13T02:25:28.887Z,21.60
2022-12-13T02:26:26.389Z,20.70
2022-12-13T02:27:30.178Z,20.40
2022-12-13T02:28:31.722Z,20.60
2022-12-13T02:29:30.391Z,21.20
2022-12-13T02:30:26.309Z,22.20
2022-12-13T02:31:26.440Z,19.60
2022-12-13T02:32:26.310Z,20.60
2022-12-13T02:33:26.290Z,20.40
2022-12-13T02:34:26.284Z,20.80
2022-12-13T02:35:26.289Z,20.00
2022-12-13T02:36:26.269Z,20.20
2022-12-13T02:37:26.238Z,19.60
2022-12-13T02:38:26.269Z,20.10
2022-12-13T02:39:29.971Z,20.50
2022-12-13T02:40:26.242Z,19.00
2022-12-13T02:41:26.200Z,19.70
2022-12-13T02:42:26.180Z,19.70
2022-12-13T02:43:26.170Z,19.90
2022-12-13T02:44:27.223Z,20.30
2022-12-13T02:45:26.619Z,20.30
2022-12-13T02:46:26.244Z,20.60
2022-12-13T02:47:26.131Z,19.20
2022-12-13T02:48:26.120Z,19.30
2022-12-13T02:49:26.131Z,19.10
2022-12-13T02:50:26.120Z,19.00
2022-12-13T02:51:26.145Z,20.10
2022-12-13T02:52:26.091Z,19.70
2022-12-13T02:53:26.080Z,20.30
2022-12-13T02:54:26.061Z,20.10
2022-12-13T02:55:28.258Z,19.70
2022-12-13T02:56:26.030Z,19.00
2022-12-13T02:57:26.041Z,18.90
2022-12-13T02:58:26.045Z,19.50
2022-12-13T02:59:26.004Z,19.50
2022-12-13T03:00:26.016Z,19.00
2022-12-13T03:01:29.127Z,20.40
2022-12-13T03:02:31.550Z,19.70
2022-12-13T03:03:27.125Z,20.40
2022-12-13T03:04:26.696Z,19.30
2022-12-13T03:05:25.968Z,19.20
2022-12-13T03:06:25.922Z,19.30
2022-12-13T03:07:26.972Z,18.80
2022-12-13T03:08:25.990Z,19.30
2022-12-13T03:09:25.904Z,19.20
2022-12-13T03:10:25.885Z,19.20
2022-12-13T03:11:25.854Z,18.50
2022-12-13T03:12:25.843Z,19.00
2022-12-13T03:13:25.886Z,17.80
2022-12-13T03:14:29.347Z,18.40
2022-12-13T03:15:26.823Z,18.90
2022-12-13T03:16:25.838Z,20.20
2022-12-13T03:17:25.804Z,19.30
2022-12-13T03:18:25.827Z,19.60
2022-12-13T03:19:25.808Z,19.10
2022-12-13T03:20:25.777Z,18.50
2022-12-13T03:21:25.764Z,17.40
2022-12-13T03:22:25.747Z,17.70
2022-12-13T03:23:25.725Z,17.60
2022-12-13T03:24:25.745Z,18.60
2022-12-13T03:25:30.985Z,18.30
2022-12-13T03:26:26.708Z,18.50
2022-12-13T03:27:25.698Z,17.40
2022-12-13T03:28:25.704Z,18.50
2022-12-13T03:29:25.677Z,17.30
2022-12-13T03:30:25.728Z,17.80
2022-12-13T03:31:25.691Z,18.00
2022-12-13T03:32:25.624Z,18.60
2022-12-13T03:33:25.629Z,17.70
2022-12-13T03:34:25.613Z,17.60
2022-12-13T03:35:34.327Z,17.80
2022-12-13T03:36:26.725Z,18.40
2022-12-13T03:37:25.628Z,18.10
2022-12-13T03:38:25.586Z,17.70
2022-12-13T03:39:25.542Z,17.70
2022-12-13T03:40:25.549Z,17.40
2022-12-13T03:41:25.558Z,17.80
2022-12-13T03:42:25.549Z,19.10
2022-12-13T03:43:25.503Z,19.10
2022-12-13T03:44:25.549Z,19.20
2022-12-13T03:45:26.483Z,17.80
2022-12-13T03:46:25.517Z,18.90
2022-12-13T03:47:25.471Z,19.80
2022-12-13T03:48:25.459Z,18.60
2022-12-13T03:49:25.450Z,19.20
2022-12-13T03:50:27.371Z,19.20
2022-12-13T03:51:25.508Z,19.40
2022-12-13T03:52:25.410Z,19.60
2022-12-13T03:53:33.085Z,21.30
2022-12-13T03:54:26.401Z,22.30
2022-12-13T03:55:25.368Z,25.50
2022-12-13T03:56:25.410Z,24.50
2022-12-13T03:57:25.347Z,26.50
2022-12-13T03:58:25.351Z,24.20
2022-12-13T03:59:25.331Z,22.80
2022-12-13T04:00:25.308Z,22.00
2022-12-13T04:01:25.402Z,22.70
2022-12-13T04:02:30.595Z,24.00
2022-12-13T04:03:26.330Z,21.20
2022-12-13T04:04:25.269Z,20.40
2022-12-13T04:05:25.293Z,19.90
2022-12-13T04:06:29.808Z,21.10
2022-12-13T04:07:26.278Z,20.70
2022-12-13T04:08:26.290Z,21.30
2022-12-13T04:09:25.219Z,22.00
2022-12-13T04:10:26.776Z,22.10
2022-12-13T04:11:25.194Z,20.30
2022-12-13T04:12:25.217Z,21.20
2022-12-13T04:13:25.232Z,20.50
2022-12-13T04:14:25.163Z,22.40
2022-12-13T04:15:25.158Z,22.20
2022-12-13T04:16:25.264Z,21.50
2022-12-13T04:17:25.131Z,21.30
2022-12-13T04:18:25.108Z,20.20
2022-12-13T04:19:25.160Z,20.40
2022-12-13T04:20:25.080Z,21.20
2022-12-13T04:21:25.080Z,20.00
2022-12-13T04:22:25.163Z,21.00
2022-12-13T04:23:25.081Z,19.40
2022-12-13T04:24:30.983Z,19.10
2022-12-13T04:25:26.029Z,19.70
2022-12-13T04:26:25.011Z,19.90
2022-12-13T04:27:25.022Z,18.80
2022-12-13T04:28:25.020Z,18.80
2022-12-13T04:29:25.024Z,18.10
2022-12-13T04:30:24.983Z,18.30
2022-12-13T04:31:25.004Z,18.60
2022-12-13T04:32:26.639Z,17.80
2022-12-13T04:33:24.954Z,19.00
2022-12-13T04:34:26.451Z,16.90
2022-12-13T04:35:24.919Z,18.90
2022-12-13T04:36:31.247Z,18.10
2022-12-13T04:37:25.935Z,18.70
2022-12-13T04:38:24.881Z,19.50
2022-12-13T04:39:24.900Z,22.80
2022-12-13T04:40:25.874Z,23.70
2022-12-13T04:41:24.873Z,21.80
2022-12-13T04:42:24.844Z,30.10
2022-12-13T04:43:24.820Z,36.60
2022-12-13T04:44:28.672Z,37.40
2022-12-13T04:45:25.869Z,30.20
2022-12-13T04:46:24.834Z,30.30
2022-12-13T04:47:24.783Z,25.50
2022-12-13T04:48:30.889Z,22.30
2022-12-13T04:49:25.791Z,20.50
2022-12-13T04:50:24.748Z,20.30
2022-12-13T04:51:24.774Z,18.80
2022-12-13T04:52:24.765Z,19.30
2022-12-13T04:53:24.741Z,18.70
2022-12-13T04:54:24.881Z,18.60
2022-12-13T04:55:24.691Z,18.10
2022-12-13T04:56:24.702Z,18.60
2022-12-13T04:57:24.691Z,17.70
2022-12-13T04:58:24.694Z,17.80
2022-12-13T04:59:24.659Z,17.80
2022-12-13T05:00:24.644Z,18.20
2022-12-13T05:01:24.672Z,18.10
2022-12-13T05:02:24.674Z,17.70
2022-12-13T05:03:24.640Z,18.10
2022-12-13T05:04:30.576Z,17.80
2022-12-13T05:05:25.594Z,16.50
2022-12-13T05:06:27.087Z,17.30
2022-12-13T05:07:24.572Z,17.60
2022-12-13T05:08:24.696Z,17.50
2022-12-13T05:09:24.547Z,17.30
2022-12-13T05:10:32.150Z,17.40
2022-12-13T05:11:25.549Z,16.70
2022-12-13T05:12:24.495Z,16.90
2022-12-13T05:13:24.513Z,16.40
2022-12-13T05:14:24.474Z,17.20
2022-12-13T05:15:24.484Z,16.80
2022-12-13T05:16:24.689Z,16.80
2022-12-13T05:17:24.434Z,17.20
2022-12-13T05:18:24.454Z,17.30
2022-12-13T05:19:30.997Z,16.90
2022-12-13T05:20:25.425Z,15.90
2022-12-13T05:21:24.392Z,17.40
2022-12-13T05:22:24.418Z,17.30
2022-12-13T05:23:24.411Z,16.70
2022-12-13T05:24:24.353Z,16.40
2022-12-13T05:25:24.346Z,16.20
2022-12-13T05:26:24.355Z,16.60
2022-12-13T05:27:26.776Z,15.70
2022-12-13T05:28:27.911Z,16.80
2022-12-13T05:29:24.304Z,16.40
2022-12-13T05:30:24.313Z,17.40
2022-12-13T05:31:24.320Z,16.00
2022-12-13T05:32:24.288Z,16.50
2022-12-13T05:33:24.294Z,15.80
2022-12-13T05:34:24.273Z,16.60
2022-12-13T05:35:24.339Z,16.50
2022-12-13T05:36:24.257Z,16.90
2022-12-13T05:37:24.220Z,16.10
2022-12-13T05:38:24.218Z,16.80
2022-12-13T05:39:29.052Z,16.20
2022-12-13T05:40:25.226Z,16.20
2022-12-13T05:41:24.189Z,16.00
2022-12-13T05:42:24.170Z,16.80
2022-12-13T05:43:24.174Z,16.00
2022-12-13T05:44:25.135Z,16.60
2022-12-13T05:45:24.165Z,15.50
2022-12-13T05:46:24.195Z,16.80
2022-12-13T05:47:24.109Z,16.50
2022-12-13T05:48:24.353Z,17.00
2022-12-13T05:49:24.090Z,17.60
2022-12-13T05:50:24.076Z,16.70
2022-12-13T05:51:24.116Z,17.20
2022-12-13T05:52:30.581Z,16.50
2022-12-13T05:53:30.593Z,16.80
2022-12-13T05:54:25.060Z,17.90
2022-12-13T05:55:24.052Z,16.30
2022-12-13T05:56:23.997Z,16.60
2022-12-13T05:57:24.040Z,16.00
2022-12-13T05:58:23.990Z,16.90
2022-12-13T05:59:23.975Z,16.70
2022-12-13T06:00:30.401Z,16.10
2022-12-13T06:01:24.939Z,16.80
2022-12-13T06:02:24.049Z,16.90
2022-12-13T06:03:24.111Z,16.80
2022-12-13T06:04:23.921Z,17.40
2022-12-13T06:05:23.911Z,16.30
2022-12-13T06:06:23.900Z,17.20
2022-12-13T06:07:23.888Z,16.90
2022-12-13T06:08:25.464Z,16.10
2022-12-13T06:09:23.881Z,16.90
2022-12-13T06:10:23.839Z,20.70
2022-12-13T06:11:31.698Z,20.40
2022-12-13T06:12:31.615Z,19.00
2022-12-13T06:13:31.947Z,18.00
2022-12-13T06:14:24.822Z,17.00
2022-12-13T06:15:24.283Z,17.40
2022-12-13T06:16:24.433Z,18.60
2022-12-13T06:17:23.760Z,19.10
2022-12-13T06:18:23.802Z,18.20
2022-12-13T06:19:23.751Z,19.20
2022-12-13T06:20:24.754Z,20.30
2022-12-13T06:21:23.852Z,21.40
2022-12-13T06:22:23.723Z,21.10
2022-12-13T06:23:23.734Z,20.70
2022-12-13T06:24:23.743Z,20.50
2022-12-13T06:25:30.539Z,19.80
2022-12-13T06:26:24.660Z,20.30
2022-12-13T06:27:23.662Z,21.60
2022-12-13T06:28:23.764Z,20.30
2022-12-13T06:29:25.678Z,20.00
2022-12-13T06:30:23.668Z,19.80
2022-12-13T06:31:23.619Z,20.90
2022-12-13T06:32:23.600Z,20.50
2022-12-13T06:33:23.855Z,21.40
2022-12-13T06:34:23.593Z,21.70
2022-12-13T06:35:30.883Z,21.40
2022-12-13T06:36:24.550Z,22.10
2022-12-13T06:37:23.553Z,20.20
2022-12-13T06:38:32.080Z,21.30
2022-12-13T06:39:24.521Z,21.60
2022-12-13T06:40:24.583Z,21.00
2022-12-13T06:41:27.622Z,22.90
2022-12-13T06:42:24.513Z,23.90
2022-12-13T06:43:23.498Z,22.90
2022-12-13T06:44:23.496Z,24.30
2022-12-13T06:45:23.451Z,24.00
2022-12-13T06:46:24.637Z,23.30
2022-12-13T06:47:32.094Z,22.30
2022-12-13T06:48:24.444Z,22.10
2022-12-13T06:49:23.426Z,22.30
2022-12-13T06:50:24.445Z,25.20
2022-12-13T06:51:32.384Z,23.30
2022-12-13T06:52:24.394Z,21.20
2022-12-13T06:53:23.383Z,20.40
2022-12-13T06:54:23.359Z,20.90
2022-12-13T06:55:24.079Z,20.90
2022-12-13T06:56:23.374Z,21.40
2022-12-13T06:57:23.328Z,23.00
2022-12-13T06:58:23.295Z,25.90
2022-12-13T06:59:23.325Z,28.60
2022-12-13T07:00:27.167Z,30.50
2022-12-13T07:01:25.106Z,32.50
2022-12-13T07:02:25.823Z,32.10
2022-12-13T07:03:23.289Z,28.20
2022-12-13T07:04:30.156Z,26.50
2022-12-13T07:05:24.235Z,25.60
2022-12-13T07:06:23.234Z,24.30
2022-12-13T07:07:23.215Z,23.70
2022-12-13T07:08:23.266Z,23.80
2022-12-13T07:09:23.196Z,22.80
2022-12-13T07:10:23.223Z,22.50
2022-12-13T07:11:23.152Z,20.20
2022-12-13T07:12:23.162Z,21.90
2022-12-13T07:13:23.241Z,22.20
2022-12-13T07:14:23.156Z,23.30
2022-12-13T07:15:23.125Z,28.80
2022-12-13T07:16:23.167Z,28.90
2022-12-13T07:17:34.065Z,24.80
2022-12-13T07:18:24.087Z,27.00
2022-12-13T07:19:24.752Z,24.00
2022-12-13T07:20:23.087Z,24.00
2022-12-13T07:21:23.075Z,23.90
2022-12-13T07:22:23.077Z,23.40
2022-12-13T07:23:24.431Z,22.70
2022-12-13T07:24:23.012Z,22.50
2022-12-13T07:25:28.463Z,22.80
2022-12-13T07:26:23.985Z,21.90
2022-12-13T07:27:23.051Z,21.80
2022-12-13T07:28:22.974Z,20.30
2022-12-13T07:29:23.043Z,18.70
2022-12-13T07:30:23.007Z,18.00
2022-12-13T07:31:23.029Z,19.90
2022-12-13T07:32:22.949Z,19.50
2022-12-13T07:33:22.956Z,19.40
2022-12-13T07:34:22.893Z,18.10
2022-12-13T07:35:22.908Z,19.70
2022-12-13T07:36:22.916Z,21.30
2022-12-13T07:37:29.773Z,20.00
2022-12-13T07:38:23.847Z,19.80
2022-12-13T07:39:22.860Z,19.80
2022-12-13T07:40:22.849Z,20.10
2022-12-13T07:41:25.900Z,20.40
2022-12-13T07:42:22.860Z,20.10
2022-12-13T07:43:23.086Z,22.80
2022-12-13T07:44:22.780Z,20.90
2022-12-13T07:45:22.798Z,21.20
2022-12-13T07:46:32.463Z,29.80
2022-12-13T07:47:23.821Z,29.00
2022-12-13T07:48:22.772Z,26.60
2022-12-13T07:49:22.747Z,27.50
2022-12-13T07:50:23.949Z,35.60
2022-12-13T07:51:22.747Z,32.70
2022-12-13T07:52:22.770Z,25.90
2022-12-13T07:53:22.988Z,22.80
2022-12-13T07:54:22.701Z,23.50
2022-12-13T07:55:23.252Z,30.50
2022-12-13T07:56:23.661Z,30.70
2022-12-13T07:57:22.657Z,35.60
2022-12-13T07:58:22.653Z,31.40
2022-12-13T07:59:28.614Z,32.00
2022-12-13T08:00:23.646Z,31.50
2022-12-13T08:01:22.665Z,29.20
2022-12-13T08:02:22.623Z,27.80
2022-12-13T08:03:25.391Z,31.50
2022-12-13T08:04:22.688Z,25.00
2022-12-13T08:05:26.843Z,23.20
2022-12-13T08:06:22.571Z,26.50
2022-12-13T08:07:22.532Z,25.90
2022-12-13T08:08:22.587Z,22.40
2022-12-13T08:09:23.529Z,21.70
2022-12-13T08:10:22.548Z,34.70
2022-12-13T08:11:22.534Z,38.40
2022-12-13T08:12:23.152Z,35.40
2022-12-13T08:13:22.653Z,34.00
2022-12-13T08:14:22.480Z,32.80
2022-12-13T08:15:22.472Z,32.50
2022-12-13T08:16:27.492Z,31.90
2022-12-13T08:17:23.406Z,30.80
2022-12-13T08:18:22.418Z,33.70
2022-12-13T08:19:22.382Z,38.40
2022-12-13T08:20:22.598Z,37.60
2022-12-13T08:21:52.619Z,37.40
2022-12-13T08:22:23.752Z,36.00
2022-12-13T08:23:22.986Z,34.50
2022-12-13T08:24:22.379Z,33.90
2022-12-13T08:25:22.311Z,39.30
2022-12-13T08:26:22.319Z,33.80
2022-12-13T08:27:22.565Z,34.80
2022-12-13T08:28:22.324Z,34.50
2022-12-13T08:29:34.751Z,32.10
2022-12-13T08:30:23.402Z,29.00
2022-12-13T08:31:22.325Z,27.20
2022-12-13T08:32:22.284Z,24.70
2022-12-13T08:33:22.675Z,25.40
2022-12-13T08:34:22.221Z,22.40
2022-12-13T08:35:22.215Z,21.50
2022-12-13T08:36:22.213Z,23.40
2022-12-13T08:37:22.214Z,23.80
2022-12-13T08:38:22.505Z,24.40
2022-12-13T08:39:22.173Z,25.20
2022-12-13T08:40:27.240Z,28.10
2022-12-13T08:41:22.144Z,26.90
2022-12-13T08:42:22.166Z,27.00
2022-12-13T08:43:24.636Z,25.80
2022-12-13T08:44:22.486Z,26.00
2022-12-13T08:45:22.109Z,28.10
2022-12-13T08:46:22.117Z,26.50
2022-12-13T08:47:24.051Z,26.40
2022-12-13T08:48:22.682Z,22.30
2022-12-13T08:49:22.118Z,21.40
2022-12-13T08:50:22.032Z,20.90
2022-12-13T08:51:24.672Z,23.80
2022-12-13T08:52:22.048Z,24.10
2022-12-13T08:53:29.592Z,23.20
2022-12-13T08:54:31.325Z,20.50
2022-12-13T08:55:25.193Z,20.00
2022-12-13T08:56:23.013Z,19.20
2022-12-13T08:57:21.975Z,19.20
2022-12-13T08:58:21.945Z,20.10
2022-12-13T08:59:21.948Z,18.40
2022-12-13T09:00:21.945Z,19.20
2022-12-13T09:01:22.002Z,19.90
2022-12-13T09:02:22.043Z,19.30
2022-12-13T09:03:22.280Z,18.30
2022-12-13T09:04:31.151Z,18.80
2022-12-13T09:05:32.266Z,19.10
2022-12-13T09:06:22.844Z,18.70
2022-12-13T09:07:21.863Z,18.60
2022-12-13T09:08:24.729Z,19.50
2022-12-13T09:09:21.828Z,19.30
2022-12-13T09:10:27.259Z,19.80
2022-12-13T09:11:34.520Z,19.30
2022-12-13T09:12:30.617Z,19.00
2022-12-13T09:13:31.738Z,19.90
2022-12-13T09:14:23.340Z,19.10
2022-12-13T09:15:23.186Z,18.10
2022-12-13T09:16:23.691Z,19.80
2022-12-13T09:17:24.278Z,19.60
2022-12-13T09:18:24.042Z,18.60
2022-12-13T09:19:26.076Z,17.90
2022-12-13T09:20:29.177Z,19.30
2022-12-13T09:21:30.839Z,19.30
2022-12-13T09:22:33.168Z,18.70
2022-12-13T09:23:23.493Z,18.40
2022-12-13T09:24:24.226Z,19.30
2022-12-13T09:25:23.912Z,19.00
2022-12-13T09:26:25.327Z,18.30
2022-12-13T09:27:27.789Z,18.20
2022-12-13T09:28:22.606Z,19.80
2022-12-13T09:29:21.629Z,18.30
2022-12-13T09:30:21.608Z,19.30
2022-12-13T09:31:21.744Z,18.70
2022-12-13T09:32:21.898Z,18.00
2022-12-13T09:33:30.432Z,19.50
2022-12-13T09:34:22.613Z,17.80
2022-12-13T09:35:21.526Z,18.60
2022-12-13T09:36:21.522Z,18.40
2022-12-13T09:37:22.813Z,18.40
2022-12-13T09:38:21.507Z,18.40
2022-12-13T09:39:21.527Z,18.20
2022-12-13T09:40:25.392Z,18.10
2022-12-13T09:41:28.334Z,17.60
2022-12-13T09:42:22.477Z,18.20
2022-12-13T09:43:31.268Z,18.10
2022-12-13T09:44:32.095Z,17.10
2022-12-13T09:45:32.006Z,17.30
2022-12-13T09:46:23.547Z,16.80
2022-12-13T09:47:23.402Z,16.70
2022-12-13T09:48:22.969Z,17.20
2022-12-13T09:49:23.232Z,17.80
2022-12-13T09:50:25.193Z,17.00
2022-12-13T09:51:28.433Z,17.00
2022-12-13T09:52:22.598Z,17.20
2022-12-13T09:53:21.844Z,18.00
2022-12-13T09:54:21.371Z,19.90
2022-12-13T09:55:21.325Z,18.10
2022-12-13T09:56:21.299Z,19.20
2022-12-13T09:57:31.253Z,18.00
2022-12-13T09:58:22.633Z,17.30
2022-12-13T09:59:21.273Z,16.80
2022-12-13T10:00:21.282Z,16.00
2022-12-13T10:01:22.634Z,16.00
2022-12-13T10:02:21.269Z,15.50
2022-12-13T10:03:21.533Z,15.50
2022-12-13T10:04:21.198Z,15.90
2022-12-13T10:05:22.841Z,15.40
2022-12-13T10:06:23.634Z,15.20
2022-12-13T10:07:21.213Z,15.70
2022-12-13T10:08:21.159Z,16.70
2022-12-13T10:09:21.160Z,16.20
2022-12-13T10:10:21.159Z,15.80
2022-12-13T10:11:21.183Z,16.10
2022-12-13T10:12:22.974Z,16.60
2022-12-13T10:13:21.358Z,16.90
2022-12-13T10:14:21.103Z,15.80
2022-12-13T10:15:21.972Z,15.50
2022-12-13T10:16:23.816Z,16.10
2022-12-13T10:17:21.110Z,15.80
2022-12-13T10:18:21.081Z,15.30
2022-12-13T10:19:29.214Z,15.80
2022-12-13T10:20:22.052Z,16.20
2022-12-13T10:21:21.024Z,16.20
2022-12-13T10:22:21.052Z,15.60
2022-12-13T10:23:38.725Z,16.80
2022-12-13T10:24:30.121Z,16.90
2022-12-13T10:25:22.007Z,18.60
2022-12-13T10:26:23.830Z,18.90
2022-12-13T10:27:21.004Z,18.10
2022-12-13T10:28:20.943Z,18.00
2022-12-13T10:29:20.957Z,17.00
2022-12-13T10:30:27.690Z,17.50
2022-12-13T10:31:21.964Z,16.70
2022-12-13T10:32:20.921Z,16.10
2022-12-13T10:33:24.493Z,16.10
2022-12-13T10:34:20.871Z,15.90
2022-12-13T10:35:21.203Z,15.30
2022-12-13T10:36:25.042Z,15.90
2022-12-13T10:37:21.879Z,15.20
2022-12-13T10:38:20.887Z,16.10
2022-12-13T10:39:20.832Z,15.20
2022-12-13T10:40:24.944Z,15.20
2022-12-13T10:41:21.794Z,16.70
2022-12-13T10:42:22.590Z,17.50
2022-12-13T10:43:21.075Z,16.60
2022-12-13T10:44:20.764Z,17.20
2022-12-13T10:45:23.780Z,17.40
2022-12-13T10:46:25.296Z,17.20
2022-12-13T10:47:21.756Z,17.30
2022-12-13T10:48:20.763Z,16.50
2022-12-13T10:49:20.725Z,16.90
2022-12-13T10:50:20.726Z,14.70
2022-12-13T10:51:20.696Z,16.20
2022-12-13T10:52:31.241Z,16.70
2022-12-13T10:53:22.870Z,17.40
2022-12-13T10:54:20.662Z,17.30
2022-12-13T10:55:23.744Z,16.30
2022-12-13T10:56:22.548Z,17.20
2022-12-13T10:57:20.631Z,16.20
2022-12-13T10:58:20.601Z,15.40
2022-12-13T10:59:20.642Z,13.00
2022-12-13T11:00:20.636Z,13.70
2022-12-13T11:01:20.673Z,13.60
2022-12-13T11:02:20.592Z,13.20
2022-12-13T11:03:20.564Z,13.60
2022-12-13T11:04:26.945Z,15.30
2022-12-13T11:05:23.323Z,14.70
2022-12-13T11:06:20.530Z,14.40
2022-12-13T11:07:20.505Z,15.40
2022-12-13T11:08:20.529Z,14.40
2022-12-13T11:09:23.050Z,13.60
2022-12-13T11:10:26.691Z,13.30
2022-12-13T11:11:21.499Z,13.90
2022-12-13T11:12:20.460Z,13.50
2022-12-13T11:13:20.466Z,13.60
2022-12-13T11:14:20.410Z,12.70
2022-12-13T11:15:23.078Z,17.70
2022-12-13T11:16:20.434Z,28.40
2022-12-13T11:17:20.391Z,21.50
2022-12-13T11:18:20.381Z,19.90
2022-12-13T11:19:20.418Z,17.80
2022-12-13T11:20:20.373Z,16.50
2022-12-13T11:21:20.389Z,17.60
2022-12-13T11:22:20.332Z,17.70
2022-12-13T11:23:20.321Z,16.90
2022-12-13T11:24:23.162Z,17.50
2022-12-13T11:25:20.279Z,17.90
2022-12-13T11:26:24.433Z,17.20
2022-12-13T11:27:20.325Z,17.70
2022-12-13T11:28:26.848Z,16.90
2022-12-13T11:29:21.275Z,16.00
2022-12-13T11:30:21.270Z,16.90
2022-12-13T11:31:20.380Z,17.00
2022-12-13T11:32:22.492Z,16.60
2022-12-13T11:33:20.221Z,17.60
2022-12-13T11:34:20.199Z,17.30
2022-12-13T11:35:20.194Z,15.70
2022-12-13T11:36:20.174Z,15.30
2022-12-13T11:37:20.163Z,18.60
2022-12-13T11:38:20.163Z,15.30
2022-12-13T11:39:20.159Z,15.40
2022-12-13T11:40:20.122Z,16.40
2022-12-13T11:41:31.519Z,15.90
2022-12-13T11:42:21.092Z,15.40
2022-12-13T11:43:20.086Z,16.10
2022-12-13T11:44:20.103Z,14.80
2022-12-13T11:45:23.127Z,14.50
2022-12-13T11:46:20.132Z,13.70
2022-12-13T11:47:20.075Z,14.80
2022-12-13T11:48:20.073Z,14.30
2022-12-13T11:49:20.004Z,14.10
2022-12-13T11:50:32.853Z,14.00
2022-12-13T11:51:20.974Z,14.10
2022-12-13T11:52:20.005Z,15.00
2022-12-13T11:53:20.049Z,14.90
2022-12-13T11:54:24.063Z,15.50
2022-12-13T11:55:19.938Z,14.70
2022-12-13T11:56:19.935Z,14.60
2022-12-13T11:57:19.936Z,14.20
2022-12-13T11:58:53.451Z,14.00
2022-12-13T11:59:26.697Z,14.30
2022-12-13T12:00:33.893Z,14.00
2022-12-13T12:01:20.872Z,14.70
2022-12-13T12:02:19.969Z,14.30
2022-12-13T12:03:19.977Z,14.90
2022-12-13T12:04:19.887Z,16.80
2022-12-13T12:05:19.828Z,14.30
2022-12-13T12:06:19.821Z,14.20
2022-12-13T12:07:35.211Z,13.80
2022-12-13T12:08:31.668Z,13.70
2022-12-13T12:09:20.803Z,16.20
2022-12-13T12:10:19.773Z,16.40
2022-12-13T12:11:19.902Z,16.50
2022-12-13T12:12:21.900Z,16.30
2022-12-13T12:13:19.749Z,16.40
2022-12-13T12:14:19.711Z,17.70
2022-12-13T12:15:27.144Z,17.50
2022-12-13T12:16:20.769Z,17.80
2022-12-13T12:17:19.671Z,18.20
2022-12-13T12:18:19.662Z,16.60
2022-12-13T12:19:19.693Z,15.00
2022-12-13T12:20:23.484Z,13.80
2022-12-13T12:21:19.631Z,13.60
2022-12-13T12:22:19.643Z,13.50
2022-12-13T12:23:19.631Z,14.20
2022-12-13T12:24:19.631Z,13.40
2022-12-13T12:25:19.582Z,13.80
2022-12-13T12:26:19.615Z,13.40
2022-12-13T12:27:22.244Z,12.90
2022-12-13T12:28:19.565Z,13.60
2022-12-13T12:29:19.597Z,13.70
2022-12-13T12:30:23.129Z,13.60
2022-12-13T12:31:19.554Z,14.30
2022-12-13T12:32:19.517Z,15.00
2022-12-13T12:33:19.518Z,17.10
2022-12-13T12:34:19.512Z,15.60
2022-12-13T12:35:20.465Z,16.30
2022-12-13T12:36:19.488Z,14.80
2022-12-13T12:37:19.465Z,16.30
2022-12-13T12:38:19.470Z,16.20
2022-12-13T12:39:19.459Z,14.30
2022-12-13T12:40:19.428Z,15.60
2022-12-13T12:41:19.431Z,18.40
2022-12-13T12:42:19.419Z,17.80
2022-12-13T12:43:19.395Z,15.00
2022-12-13T12:44:19.400Z,15.00
2022-12-13T12:45:54.488Z,14.00
2022-12-13T12:46:20.493Z,14.00
2022-12-13T12:47:38.244Z,13.00
2022-12-13T12:49:20.357Z,13.20
2022-12-13T12:50:19.312Z,13.50
2022-12-13T12:51:19.289Z,14.00
2022-12-13T12:52:19.316Z,13.10
2022-12-13T12:53:19.272Z,12.80